M\t Procida — IBJT — position and weather

sailwx.info

Track history (hours):
 
Tides and Currents Weather Stations Pressure Air Temp Water Temp Dewpoint Dewpoint Depression Visibility Wind Speed Wind Dir Waves Ship Positions

M\t Procida

Last reported at 2016-Sep-25 15:33 UTC. Time now 2016-Sep-25 15:47 UTC.
Position N 57°41' E 011°20'.

Length 149 m; draft 6.5 m.

Type: Tanker. MMSI: 247258400.

Date/timePositionNaut miles runAvg speedWind from/ knotsBaromVisibWave heightAir tempDewpointWater temp
2016-Sep-25 15:33N 57°41' E 011°20'1111.2
2016-Sep-25 14:33N 57°37' E 011°40'8 3.9
2016-Sep-25 12:32N 57°41' E 011°53'0 0.0
2016-Sep-25 11:32N 57°41' E 011°53'0 0.0
2016-Sep-25 10:32N 57°41' E 011°53'0 0.0
2016-Sep-25 09:32N 57°41' E 011°53'0 0.0
2016-Sep-25 07:32N 57°41' E 011°53'0 0.0
2016-Sep-25 04:32N 57°41' E 011°53'0 0.0
2016-Sep-25 00:32N 57°41' E 011°53'0 0.0
2016-Sep-24 22:32N 57°41' E 011°53'0 0.0
2016-Sep-24 21:32N 57°41' E 011°53'0 0.0
2016-Sep-24 19:32N 57°41' E 011°53'0 0.0
2016-Sep-24 18:32N 57°41' E 011°53'0 0.0
2016-Sep-24 17:32N 57°41' E 011°53'0 0.0
2016-Sep-24 16:32N 57°41' E 011°53'0 0.0
2016-Sep-24 14:32N 57°41' E 011°53'0 0.0
2016-Sep-24 12:32N 57°41' E 011°53'0 0.0
2016-Sep-24 10:32N 57°41' E 011°53'0 0.0
2016-Sep-24 09:32N 57°41' E 011°53'0 0.0
2016-Sep-24 03:32N 57°41' E 011°53'0 0.0
2016-Sep-24 02:32N 57°41' E 011°53'0 0.0
2016-Sep-24 01:32N 57°41' E 011°53'0 0.0
2016-Sep-24 00:32N 57°41' E 011°53'0 0.0
2016-Sep-23 19:32N 57°41' E 011°53'0 0.0
2016-Sep-23 17:32N 57°41' E 011°53'0 0.0
2016-Sep-23 16:32N 57°41' E 011°53'0 0.0
2016-Sep-23 15:32N 57°41' E 011°53'0 0.0
2016-Sep-23 13:32N 57°41' E 011°53'0 0.0
2016-Sep-23 09:32N 57°41' E 011°53'0 0.0
2016-Sep-23 06:32N 57°41' E 011°53'1 0.5
2016-Sep-23 04:34N 57°41' E 011°51'9 9.1
2016-Sep-23 03:34N 57°35' E 011°38'8 8.1
2016-Sep-23 02:33N 57°38' E 011°24'1111.3
2016-Sep-23 01:33N 57°44' E 011°06'1111.5
2016-Sep-23 00:34N 57°49' E 010°46'46511.9
2016-Sep-21 09:33N 56°06' W 003°05'0 0.0
2016-Sep-21 08:33N 56°06' W 003°05'0 0.0
2016-Sep-21 05:33N 56°06' W 003°05'17 8.2
2016-Sep-21 03:32N 56°02' W 003°35'4 3.4
2016-Sep-21 02:25N 56°02' W 003°41'  
2016-Sep-18 10:32N 56°05' W 003°07'0 0.1
2016-Sep-18 09:32N 56°05' W 003°07'60 8.6
2016-Sep-18 02:33N 55°55' W 001°21'2410.5
2016-Sep-18 00:15N 55°45' W 000°41'2111.2
2016-Sep-17 22:25N 55°37' W 000°08'1011.4
2016-Sep-17 21:33N 55°33' E 000°08'252 9.0
2016-Sep-16 17:33N 52°01' E 003°59'16 7.9
2016-Sep-16 15:33N 51°54' E 004°22'0 0.0
2016-Sep-16 12:30N 51°54' E 004°22'0 0.0
2016-Sep-16 09:33N 51°54' E 004°22'0 0.0
2016-Sep-16 07:31N 51°54' E 004°22'0 0.0
2016-Sep-16 03:30N 51°54' E 004°22'0 0.0
2016-Sep-16 00:30N 51°54' E 004°22'0 0.0
2016-Sep-15 22:25N 51°54' E 004°22'0 0.0
2016-Sep-15 21:30N 51°54' E 004°22'0 0.0
2016-Sep-15 20:25N 51°54' E 004°22'0 0.0
2016-Sep-15 18:30N 51°54' E 004°22'  
Track history (hours):
 
Tides and Currents Weather Stations Pressure Air Temp Water Temp Dewpoint Dewpoint Depression Visibility Wind Speed Wind Dir Waves Ship Positions

M\t Procida

Last reported at 2016-Sep-25 15:33 UTC. Time now 2016-Sep-25 15:47 UTC.
Position N 57°41' E 011°20'.

Length 149 m; draft 6.5 m.

Type: Tanker. MMSI: 247258400.

Date/timePositionNaut miles runAvg speedWind from/ knotsBaromVisibWave heightAir tempDewpointWater temp
2016-Sep-25 15:33N 57°41' E 011°20'1111.2
2016-Sep-25 14:33N 57°37' E 011°40'8 3.9
2016-Sep-25 12:32N 57°41' E 011°53'0 0.0
2016-Sep-25 11:32N 57°41' E 011°53'0 0.0
2016-Sep-25 10:32N 57°41' E 011°53'0 0.0
2016-Sep-25 09:32N 57°41' E 011°53'0 0.0
2016-Sep-25 07:32N 57°41' E 011°53'0 0.0
2016-Sep-25 04:32N 57°41' E 011°53'0 0.0
2016-Sep-25 00:32N 57°41' E 011°53'0 0.0
2016-Sep-24 22:32N 57°41' E 011°53'0 0.0
2016-Sep-24 21:32N 57°41' E 011°53'0 0.0
2016-Sep-24 19:32N 57°41' E 011°53'0 0.0
2016-Sep-24 18:32N 57°41' E 011°53'0 0.0
2016-Sep-24 17:32N 57°41' E 011°53'0 0.0
2016-Sep-24 16:32N 57°41' E 011°53'0 0.0
2016-Sep-24 14:32N 57°41' E 011°53'0 0.0
2016-Sep-24 12:32N 57°41' E 011°53'0 0.0
2016-Sep-24 10:32N 57°41' E 011°53'0 0.0
2016-Sep-24 09:32N 57°41' E 011°53'0 0.0
2016-Sep-24 03:32N 57°41' E 011°53'0 0.0
2016-Sep-24 02:32N 57°41' E 011°53'0 0.0
2016-Sep-24 01:32N 57°41' E 011°53'0 0.0
2016-Sep-24 00:32N 57°41' E 011°53'0 0.0
2016-Sep-23 19:32N 57°41' E 011°53'0 0.0
2016-Sep-23 17:32N 57°41' E 011°53'0 0.0
2016-Sep-23 16:32N 57°41' E 011°53'0 0.0
2016-Sep-23 15:32N 57°41' E 011°53'0 0.0
2016-Sep-23 13:32N 57°41' E 011°53'0 0.0
2016-Sep-23 09:32N 57°41' E 011°53'0 0.0
2016-Sep-23 06:32N 57°41' E 011°53'1 0.5
2016-Sep-23 04:34N 57°41' E 011°51'9 9.1
2016-Sep-23 03:34N 57°35' E 011°38'8 8.1
2016-Sep-23 02:33N 57°38' E 011°24'1111.3
2016-Sep-23 01:33N 57°44' E 011°06'1111.5
2016-Sep-23 00:34N 57°49' E 010°46'46511.9
2016-Sep-21 09:33N 56°06' W 003°05'0 0.0
2016-Sep-21 08:33N 56°06' W 003°05'0 0.0
2016-Sep-21 05:33N 56°06' W 003°05'17 8.2
2016-Sep-21 03:32N 56°02' W 003°35'4 3.4
2016-Sep-21 02:25N 56°02' W 003°41'  
2016-Sep-18 10:32N 56°05' W 003°07'0 0.1
2016-Sep-18 09:32N 56°05' W 003°07'60 8.6
2016-Sep-18 02:33N 55°55' W 001°21'2410.5
2016-Sep-18 00:15N 55°45' W 000°41'2111.2
2016-Sep-17 22:25N 55°37' W 000°08'1011.4
2016-Sep-17 21:33N 55°33' E 000°08'252 9.0
2016-Sep-16 17:33N 52°01' E 003°59'16 7.9
2016-Sep-16 15:33N 51°54' E 004°22'0 0.0
2016-Sep-16 12:30N 51°54' E 004°22'0 0.0
2016-Sep-16 09:33N 51°54' E 004°22'0 0.0
2016-Sep-16 07:31N 51°54' E 004°22'0 0.0
2016-Sep-16 03:30N 51°54' E 004°22'0 0.0
2016-Sep-16 00:30N 51°54' E 004°22'0 0.0
2016-Sep-15 22:25N 51°54' E 004°22'0 0.0
2016-Sep-15 21:30N 51°54' E 004°22'0 0.0
2016-Sep-15 20:25N 51°54' E 004°22'0 0.0
2016-Sep-15 18:30N 51°54' E 004°22'  

Dump ship's entire track history